createdAt,value
2018-09-08T00:01:25.546Z,48.27
2018-09-08T00:03:56.252Z,48.39
2018-09-08T00:06:31.891Z,48.18
2018-09-08T00:09:03.570Z,48.40
2018-09-08T00:11:34.252Z,48.80
2018-09-08T00:14:05.163Z,48.90
2018-09-08T00:16:40.684Z,48.90
2018-09-08T00:19:16.142Z,49.48
2018-09-08T00:21:52.174Z,49.50
2018-09-08T00:24:28.907Z,49.62
2018-09-08T00:26:58.235Z,49.15
2018-09-08T00:29:33.997Z,48.97
2018-09-08T00:32:09.356Z,48.21
2018-09-08T00:34:41.525Z,49.39
2018-09-08T00:37:12.033Z,48.43
2018-09-08T00:39:43.584Z,48.79
2018-09-08T00:42:14.313Z,48.71
2018-09-08T00:44:45.201Z,49.64
2018-09-08T00:47:15.969Z,50.67
2018-09-08T00:49:46.576Z,49.85
2018-09-08T00:52:17.248Z,49.66
2018-09-08T00:54:48.473Z,49.38
2018-09-08T00:57:19.187Z,49.76
2018-09-08T00:59:49.742Z,49.63
2018-09-08T01:02:20.522Z,49.74
2018-09-08T01:04:52.612Z,49.22
2018-09-08T01:07:28.313Z,49.47
2018-09-08T01:10:00.020Z,49.28
2018-09-08T01:12:31.223Z,50.09
2018-09-08T01:15:02.808Z,50.24
2018-09-08T01:17:33.333Z,49.37
2018-09-08T01:20:03.915Z,49.25
2018-09-08T01:22:34.734Z,49.77
2018-09-08T01:25:06.473Z,49.64
2018-09-08T01:27:37.100Z,49.25
2018-09-08T01:30:08.369Z,51.25
2018-09-08T01:32:38.850Z,51.71
2018-09-08T01:35:10.215Z,51.80
2018-09-08T01:37:41.099Z,51.61
2018-09-08T01:40:11.857Z,51.44
2018-09-08T01:42:42.590Z,51.14
2018-09-08T01:45:13.854Z,50.92
2018-09-08T01:47:44.173Z,50.16
2018-09-08T01:50:14.494Z,51.40
2018-09-08T01:52:45.029Z,51.58
2018-09-08T01:55:16.584Z,51.57
2018-09-08T01:57:47.132Z,51.20
2018-09-08T02:00:17.746Z,51.71
2018-09-08T02:02:48.379Z,51.68
2018-09-08T02:05:19.606Z,51.09
2018-09-08T02:07:50.044Z,51.69
2018-09-08T02:10:21.272Z,51.08
2018-09-08T02:12:51.882Z,51.60
2018-09-08T02:15:23.320Z,52.66
2018-09-08T02:17:53.933Z,51.97
2018-09-08T02:20:24.097Z,51.73
2018-09-08T02:22:54.797Z,51.83
2018-09-08T02:25:25.556Z,51.54
2018-09-08T02:27:56.127Z,53.54
2018-09-08T02:30:26.587Z,53.21
2018-09-08T02:32:56.978Z,52.67
2018-09-08T02:35:28.490Z,52.25
2018-09-08T02:37:58.650Z,52.59
2018-09-08T02:40:29.177Z,52.40
2018-09-08T02:43:00.117Z,52.89
2018-09-08T02:45:31.031Z,52.82
2018-09-08T02:48:01.752Z,52.38
2018-09-08T02:50:33.170Z,52.14
2018-09-08T02:53:01.974Z,52.47
2018-09-08T02:55:31.327Z,52.27
2018-09-08T02:58:00.175Z,52.52
2018-09-08T03:00:29.664Z,51.71
2018-09-08T03:02:58.661Z,51.15
2018-09-08T03:05:27.532Z,52.41
2018-09-08T03:07:56.611Z,51.38
2018-09-08T03:10:25.613Z,51.73
2018-09-08T03:12:54.172Z,52.02
2018-09-08T03:15:22.718Z,51.61
2018-09-08T03:17:51.596Z,51.67
2018-09-08T03:20:20.275Z,51.51
2018-09-08T03:22:48.995Z,50.92
2018-09-08T03:25:17.860Z,50.46
2018-09-08T03:27:46.446Z,51.57
2018-09-08T03:30:15.128Z,52.13
2018-09-08T03:32:43.777Z,52.03
2018-09-08T03:35:12.181Z,52.22
2018-09-08T03:37:41.089Z,52.04
2018-09-08T03:40:09.967Z,51.91
2018-09-08T03:42:38.750Z,52.36
2018-09-08T03:45:07.520Z,52.86
2018-09-08T03:47:36.540Z,52.48
2018-09-08T03:50:05.597Z,52.81
2018-09-08T03:52:34.591Z,53.24
2018-09-08T03:55:03.482Z,56.96
2018-09-08T03:57:32.510Z,57.68
2018-09-08T04:00:01.469Z,58.43
2018-09-08T04:02:30.562Z,58.63
2018-09-08T04:05:01.174Z,57.16
2018-09-08T04:07:31.767Z,57.33
2018-09-08T04:10:02.555Z,56.91
2018-09-08T04:12:33.051Z,55.94
2018-09-08T04:15:04.335Z,59.12
2018-09-08T04:17:34.506Z,61.05
2018-09-08T04:20:04.977Z,62.76
2018-09-08T04:22:36.531Z,64.96
2018-09-08T04:25:07.880Z,65.75
2018-09-08T04:27:38.826Z,65.03
2018-09-08T04:30:09.051Z,63.00
2018-09-08T04:32:39.571Z,60.46
2018-09-08T04:35:10.344Z,58.15
2018-09-08T04:37:40.833Z,57.00
2018-09-08T04:40:11.043Z,59.90
2018-09-08T04:42:41.655Z,60.28
2018-09-08T04:45:13.172Z,59.50
2018-09-08T04:47:43.839Z,57.62
2018-09-08T04:50:13.988Z,57.39
2018-09-08T04:52:44.418Z,59.09
2018-09-08T04:55:15.858Z,59.18
2018-09-08T04:57:46.652Z,58.68
2018-09-08T05:00:17.083Z,58.29
2018-09-08T05:02:47.518Z,56.35
2018-09-08T05:05:19.110Z,56.88
2018-09-08T05:07:49.695Z,55.94
2018-09-08T05:10:20.614Z,55.14
2018-09-08T05:12:51.079Z,54.96
2018-09-08T05:15:21.987Z,55.45
2018-09-08T05:17:52.365Z,54.80
2018-09-08T05:20:22.978Z,54.19
2018-09-08T05:22:53.862Z,53.59
2018-09-08T05:25:24.202Z,51.84
2018-09-08T05:27:54.934Z,51.67
2018-09-08T05:30:25.462Z,50.48
2018-09-08T05:32:56.036Z,52.78
2018-09-08T05:35:26.730Z,49.80
2018-09-08T05:37:57.183Z,50.70
2018-09-08T05:40:27.793Z,51.87
2018-09-08T05:42:58.273Z,52.76
2018-09-08T05:45:29.076Z,52.79
2018-09-08T05:47:59.449Z,53.58
2018-09-08T05:50:29.935Z,55.00
2018-09-08T05:53:00.627Z,55.69
2018-09-08T05:55:31.997Z,54.96
2018-09-08T05:58:02.595Z,55.23
2018-09-08T06:00:33.143Z,56.50
2018-09-08T06:03:03.669Z,56.82
2018-09-08T06:05:34.331Z,56.61
2018-09-08T06:08:04.966Z,57.17
2018-09-08T06:10:35.764Z,56.79
2018-09-08T06:13:06.219Z,53.56
2018-09-08T06:15:37.051Z,52.87
2018-09-08T06:18:07.791Z,52.78
2018-09-08T06:20:38.538Z,49.81
2018-09-08T06:23:09.518Z,47.59
2018-09-08T06:25:40.780Z,46.02
2018-09-08T06:28:10.754Z,47.08
2018-09-08T06:30:41.264Z,46.79
2018-09-08T06:33:11.625Z,45.66
2018-09-08T06:35:42.085Z,45.32
2018-09-08T06:38:11.845Z,45.81
2018-09-08T06:40:41.702Z,45.45
2018-09-08T06:43:11.537Z,45.49
2018-09-08T06:45:41.462Z,45.99
2018-09-08T06:48:11.412Z,46.38
2018-09-08T06:50:41.028Z,46.39
2018-09-08T06:53:10.647Z,44.46
2018-09-08T06:55:40.458Z,44.39
2018-09-08T06:58:10.328Z,44.05
2018-09-08T07:00:40.259Z,42.46
2018-09-08T07:03:10.161Z,43.73
2018-09-08T07:05:39.871Z,45.53
2018-09-08T07:08:09.654Z,45.47
2018-09-08T07:10:39.603Z,44.52
2018-09-08T07:13:09.521Z,43.66
2018-09-08T07:15:39.338Z,43.15
2018-09-08T07:18:09.083Z,44.18
2018-09-08T07:20:38.964Z,45.01
2018-09-08T07:23:08.748Z,45.59
2018-09-08T07:25:38.513Z,45.26
2018-09-08T07:28:08.445Z,45.08
2018-09-08T07:30:38.608Z,46.17
2018-09-08T07:33:08.495Z,45.73
2018-09-08T07:35:38.274Z,44.26
2018-09-08T07:38:08.104Z,44.80
2018-09-08T07:40:37.786Z,45.09
2018-09-08T07:43:07.650Z,46.29
2018-09-08T07:45:37.577Z,44.47
2018-09-08T07:48:07.654Z,44.18
2018-09-08T07:50:37.518Z,42.97
2018-09-08T07:53:07.450Z,41.01
2018-09-08T07:55:37.138Z,42.37
2018-09-08T07:58:07.029Z,41.51
2018-09-08T08:00:36.927Z,40.93
2018-09-08T08:03:06.959Z,39.38
2018-09-08T08:05:37.023Z,38.14
2018-09-08T08:08:07.193Z,38.95
2018-09-08T08:10:37.122Z,38.93
2018-09-08T08:13:07.351Z,38.57
2018-09-08T08:15:38.174Z,39.21
2018-09-08T08:18:08.082Z,38.02
2018-09-08T08:20:38.013Z,37.07
2018-09-08T08:23:07.770Z,38.99
2018-09-08T08:25:37.583Z,39.55
2018-09-08T08:28:07.493Z,39.22
2018-09-08T08:30:37.292Z,39.61
2018-09-08T08:33:07.300Z,39.97
2018-09-08T08:35:37.118Z,40.89
2018-09-08T08:38:07.025Z,40.60
2018-09-08T08:40:36.757Z,39.61
2018-09-08T08:43:06.787Z,41.08
2018-09-08T08:45:36.749Z,39.46
2018-09-08T08:48:06.606Z,39.80
2018-09-08T08:50:46.969Z,39.71
2018-09-08T08:53:27.275Z,39.36
2018-09-08T08:55:57.548Z,39.33
2018-09-08T08:58:27.388Z,38.91
2018-09-08T09:00:57.114Z,39.29
2018-09-08T09:03:27.053Z,38.89
2018-09-08T09:05:56.836Z,39.81
2018-09-08T09:08:27.255Z,39.08
2018-09-08T09:10:56.757Z,39.12
2018-09-08T09:13:26.596Z,37.81
2018-09-08T09:15:56.380Z,37.44
2018-09-08T09:20:40.068Z,36.25
2018-09-08T09:25:19.632Z,35.04
2018-09-08T09:27:50.790Z,35.35
2018-09-08T09:30:21.198Z,34.39
2018-09-08T09:32:51.060Z,33.92
2018-09-08T09:35:22.647Z,33.19
2018-09-08T09:37:52.443Z,33.88
2018-09-08T09:40:23.007Z,34.25
2018-09-08T09:42:52.749Z,33.36
2018-09-08T09:45:24.310Z,33.86
2018-09-08T09:48:00.502Z,34.36
2018-09-08T09:50:31.055Z,34.06
2018-09-08T09:53:01.603Z,32.65
2018-09-08T09:55:32.635Z,34.41
2018-09-08T09:58:03.962Z,34.77
2018-09-08T10:00:39.551Z,35.57
2018-09-08T10:03:09.373Z,34.66
2018-09-08T10:05:39.236Z,34.42
2018-09-08T10:08:10.524Z,35.61
2018-09-08T10:10:41.242Z,34.15
2018-09-08T10:13:11.130Z,33.70
2018-09-08T10:15:41.118Z,33.80
2018-09-08T10:18:12.088Z,34.11
2018-09-08T10:20:41.878Z,34.17
2018-09-08T10:23:11.759Z,34.62
2018-09-08T10:25:41.698Z,34.24
2018-09-08T10:28:12.337Z,32.23
2018-09-08T10:30:42.269Z,32.68
2018-09-08T10:33:12.139Z,32.77
2018-09-08T10:35:42.018Z,31.06
2018-09-08T10:38:12.969Z,32.73
2018-09-08T10:40:42.822Z,33.01
2018-09-08T10:43:12.556Z,31.87
2018-09-08T10:45:42.401Z,32.01
2018-09-08T10:48:13.645Z,31.52
2018-09-08T10:50:43.465Z,32.42
2018-09-08T10:53:13.357Z,31.39
2018-09-08T10:55:43.208Z,30.38
2018-09-08T10:58:14.161Z,29.84
2018-09-08T11:00:44.034Z,31.92
2018-09-08T11:03:13.881Z,29.77
2018-09-08T11:05:43.724Z,28.95
2018-09-08T11:08:13.944Z,27.52
2018-09-08T11:10:43.799Z,28.24
2018-09-08T11:13:13.661Z,28.33
2018-09-08T11:15:43.256Z,28.14
2018-09-08T11:18:13.576Z,28.87
2018-09-08T11:20:44.095Z,28.61
2018-09-08T11:23:14.610Z,26.07
2018-09-08T11:25:45.096Z,22.66
2018-09-08T11:28:15.470Z,24.50
2018-09-08T11:30:45.303Z,24.46
2018-09-08T11:33:15.022Z,26.06
2018-09-08T11:35:44.788Z,26.37
2018-09-08T11:38:15.382Z,26.33
2018-09-08T11:40:45.228Z,26.73
2018-09-08T11:43:14.836Z,26.63
2018-09-08T11:45:45.249Z,25.64
2018-09-08T11:48:16.107Z,25.78
2018-09-08T11:50:46.658Z,25.48
2018-09-08T11:53:17.167Z,28.01
2018-09-08T11:55:47.650Z,24.97
2018-09-08T11:58:19.049Z,24.86
2018-09-08T12:00:49.584Z,25.54
2018-09-08T12:03:20.421Z,26.42
2018-09-08T12:05:51.117Z,26.02
2018-09-08T12:08:21.779Z,23.91
2018-09-08T12:10:52.628Z,21.95
2018-09-08T12:13:23.062Z,20.55
2018-09-08T12:15:53.868Z,22.26
2018-09-08T12:18:24.746Z,20.18
2018-09-08T12:20:55.755Z,23.59
2018-09-08T12:23:26.404Z,23.09
2018-09-08T12:25:56.914Z,22.52
2018-09-08T12:28:27.860Z,22.33
2018-09-08T12:30:58.515Z,24.05
2018-09-08T12:33:28.908Z,24.20
2018-09-08T12:35:59.507Z,23.86
2018-09-08T12:38:30.045Z,23.96
2018-09-08T12:41:00.851Z,24.21
2018-09-08T12:43:31.252Z,23.64
2018-09-08T12:46:01.864Z,23.90
2018-09-08T12:48:33.074Z,25.83
2018-09-08T12:51:03.465Z,25.96
2018-09-08T12:53:34.241Z,24.20
2018-09-08T12:56:04.916Z,24.75
2018-09-08T12:58:35.231Z,26.62
2018-09-08T13:01:05.035Z,27.63
2018-09-08T13:03:34.824Z,26.98
2018-09-08T13:06:04.713Z,27.93
2018-09-08T13:08:34.477Z,28.16
2018-09-08T13:11:04.262Z,28.08
2018-09-08T13:13:34.009Z,28.61
2018-09-08T13:16:03.892Z,29.38
2018-09-08T13:18:33.623Z,28.93
2018-09-08T13:21:03.488Z,28.85
2018-09-08T13:23:33.413Z,28.60
2018-09-08T13:26:03.285Z,29.51
2018-09-08T13:28:33.124Z,28.62
2018-09-08T13:31:02.934Z,28.30
2018-09-08T13:33:32.685Z,30.09
2018-09-08T13:36:02.546Z,30.22
2018-09-08T13:38:32.309Z,29.94
2018-09-08T13:41:02.083Z,31.05
2018-09-08T13:43:32.143Z,30.06
2018-09-08T13:46:01.977Z,31.38
2018-09-08T13:48:31.763Z,31.55
2018-09-08T13:51:01.827Z,31.56
2018-09-08T13:53:32.366Z,31.46
2018-09-08T13:56:02.707Z,31.09
2018-09-08T13:58:33.167Z,31.34
2018-09-08T14:01:03.680Z,30.91
2018-09-08T14:03:34.282Z,31.02
2018-09-08T14:06:04.803Z,30.06
2018-09-08T14:08:35.451Z,30.08
2018-09-08T14:11:06.001Z,30.19
2018-09-08T14:13:35.862Z,32.41
2018-09-08T14:16:05.997Z,30.77
2018-09-08T14:18:35.846Z,30.61
2018-09-08T14:21:05.713Z,29.82
2018-09-08T14:23:35.499Z,30.10
2018-09-08T14:26:05.232Z,29.33
2018-09-08T14:28:35.110Z,30.37
2018-09-08T14:31:04.879Z,31.08
2018-09-08T14:33:34.788Z,29.46
2018-09-08T14:36:04.652Z,29.19
2018-09-08T14:38:34.776Z,29.46
2018-09-08T14:41:04.623Z,30.60
2018-09-08T14:43:34.450Z,32.44
2018-09-08T14:46:04.355Z,33.90
2018-09-08T14:48:34.105Z,33.16
2018-09-08T14:51:04.468Z,33.67
2018-09-08T14:53:34.352Z,34.10
2018-09-08T14:56:05.442Z,36.75
2018-09-08T14:58:36.588Z,42.31
2018-09-08T15:01:07.265Z,45.56
2018-09-08T15:03:37.822Z,44.41
2018-09-08T15:06:08.378Z,47.98
2018-09-08T15:08:39.130Z,47.38
2018-09-08T15:11:09.536Z,47.18
2018-09-08T15:13:40.006Z,45.08
2018-09-08T15:16:10.615Z,47.70
2018-09-08T15:18:40.942Z,50.82
2018-09-08T15:21:11.373Z,52.13
2018-09-08T15:23:41.919Z,51.86
2018-09-08T15:26:12.465Z,52.34
2018-09-08T15:28:43.317Z,54.99
2018-09-08T15:31:13.886Z,52.26
2018-09-08T15:33:44.416Z,51.15
2018-09-08T15:36:15.091Z,52.88
2018-09-08T15:38:46.262Z,53.65
2018-09-08T15:41:17.429Z,50.04
2018-09-08T15:43:48.128Z,56.83
2018-09-08T15:46:18.508Z,54.16
2018-09-08T15:48:49.776Z,54.08
2018-09-08T15:51:20.574Z,55.05
2018-09-08T15:53:50.814Z,56.48
2018-09-08T15:56:21.296Z,57.16
2018-09-08T15:58:52.892Z,59.95
2018-09-08T16:01:23.618Z,61.95
2018-09-08T16:03:54.246Z,58.39
2018-09-08T16:06:24.827Z,56.06
2018-09-08T16:08:55.193Z,55.72
2018-09-08T16:11:25.887Z,54.88
2018-09-08T16:13:56.274Z,60.75
2018-09-08T16:16:26.962Z,57.65
2018-09-08T16:18:57.732Z,61.27
2018-09-08T16:21:28.247Z,59.29
2018-09-08T16:23:58.932Z,57.63
2018-09-08T16:26:29.616Z,58.92
2018-09-08T16:29:00.213Z,57.46
2018-09-08T16:31:30.777Z,54.97
2018-09-08T16:34:01.295Z,56.60
2018-09-08T16:36:31.597Z,54.87
2018-09-08T16:39:03.043Z,56.49
2018-09-08T16:41:33.351Z,59.04
2018-09-08T16:44:04.026Z,59.29
2018-09-08T16:46:34.749Z,60.15
2018-09-08T16:49:05.676Z,57.79
2018-09-08T16:51:36.885Z,57.05
2018-09-08T16:54:07.458Z,56.65
2018-09-08T16:56:38.407Z,56.58
2018-09-08T16:59:09.381Z,58.15
2018-09-08T17:01:39.964Z,60.75
2018-09-08T17:04:10.670Z,62.22
2018-09-08T17:06:41.249Z,64.65
2018-09-08T17:09:12.043Z,66.40
2018-09-08T17:11:42.426Z,68.37
2018-09-08T17:14:13.090Z,67.86
2018-09-08T17:16:43.618Z,67.37
2018-09-08T17:19:14.423Z,67.21
2018-09-08T17:21:45.625Z,69.32
2018-09-08T17:24:16.050Z,68.55
2018-09-08T17:26:46.650Z,68.80
2018-09-08T17:29:17.726Z,66.41
2018-09-08T17:31:48.366Z,63.63
2018-09-08T17:34:18.954Z,60.82
2018-09-08T17:36:49.125Z,59.17
2018-09-08T17:39:21.162Z,58.49
2018-09-08T17:41:51.796Z,56.55
2018-09-08T17:44:22.175Z,56.54
2018-09-08T17:46:52.725Z,56.51
2018-09-08T17:49:23.575Z,55.67
2018-09-08T17:51:54.162Z,55.42
2018-09-08T17:54:24.928Z,55.60
2018-09-08T17:56:55.422Z,55.62
2018-09-08T17:59:26.474Z,57.46
2018-09-08T18:01:57.554Z,56.83
2018-09-08T18:04:28.307Z,58.13
2018-09-08T18:06:58.708Z,56.48
2018-09-08T18:09:30.460Z,58.08
2018-09-08T18:12:01.114Z,58.91
2018-09-08T18:14:31.824Z,58.89
2018-09-08T18:17:02.701Z,61.59
2018-09-08T18:19:34.139Z,62.87
2018-09-08T18:22:04.745Z,62.15
2018-09-08T18:27:27.930Z,60.97
2018-09-08T18:29:58.434Z,61.48
2018-09-08T18:32:28.863Z,60.90
2018-09-08T18:34:59.723Z,59.22
2018-09-08T18:37:30.319Z,58.76
2018-09-08T18:40:00.847Z,58.45
2018-09-08T18:42:31.607Z,58.27
2018-09-08T18:45:03.340Z,58.33
2018-09-08T18:47:33.971Z,57.67
2018-09-08T18:50:04.698Z,57.49
2018-09-08T18:52:35.599Z,57.95
2018-09-08T18:55:06.369Z,57.82
2018-09-08T18:57:36.848Z,56.44
2018-09-08T19:00:06.879Z,57.54
2018-09-08T19:02:37.389Z,58.45
2018-09-08T19:05:08.293Z,57.62
2018-09-08T19:07:39.116Z,56.89
2018-09-08T19:10:09.646Z,56.02
2018-09-08T19:12:40.147Z,56.28
2018-09-08T19:15:15.758Z,59.54
2018-09-08T19:17:46.567Z,59.73
2018-09-08T19:20:21.982Z,60.73
2018-09-08T19:22:52.710Z,60.75
2018-09-08T19:25:24.124Z,61.53
2018-09-08T19:27:54.764Z,59.56
2018-09-08T19:30:24.968Z,58.26
2018-09-08T19:32:55.478Z,57.42
2018-09-08T19:35:31.662Z,56.83
2018-09-08T19:38:02.146Z,55.25
2018-09-08T19:40:37.536Z,56.10
2018-09-08T19:43:07.936Z,56.20
2018-09-08T19:45:38.566Z,59.08
2018-09-08T19:48:18.834Z,57.26
2018-09-08T19:50:49.140Z,57.22
2018-09-08T19:53:24.796Z,57.56
2018-09-08T19:55:56.086Z,56.56
2018-09-08T19:58:31.863Z,55.73
2018-09-08T20:01:02.738Z,56.66
2018-09-08T20:03:33.455Z,56.61
2018-09-08T20:06:04.002Z,54.80
2018-09-08T20:08:36.575Z,54.56
2018-09-08T20:11:06.696Z,58.55
2018-09-08T20:13:37.513Z,56.37
2018-09-08T20:16:08.538Z,56.35
2018-09-08T20:18:38.982Z,55.66
2018-09-08T20:21:09.466Z,56.86
2018-09-08T20:23:39.903Z,57.80
2018-09-08T20:26:11.464Z,56.83
2018-09-08T20:28:42.216Z,58.23
2018-09-08T20:31:12.858Z,58.04
2018-09-08T20:33:43.413Z,58.16
2018-09-08T20:36:14.725Z,57.89
2018-09-08T20:38:45.112Z,60.45
2018-09-08T20:41:15.524Z,62.04
2018-09-08T20:43:46.210Z,59.95
2018-09-08T20:46:17.473Z,58.34
2018-09-08T20:48:47.979Z,57.76
2018-09-08T20:51:18.622Z,57.16
2018-09-08T20:53:49.341Z,56.81
2018-09-08T20:56:20.445Z,59.43
2018-09-08T20:58:50.681Z,58.88
2018-09-08T21:01:21.154Z,58.07
2018-09-08T21:03:51.611Z,57.45
2018-09-08T21:06:23.235Z,57.39
2018-09-08T21:08:53.890Z,60.34
2018-09-08T21:11:24.505Z,59.93
2018-09-08T21:13:55.088Z,58.79
2018-09-08T21:16:25.985Z,58.29
2018-09-08T21:18:56.419Z,58.22
2018-09-08T21:21:26.949Z,57.70
2018-09-08T21:23:57.567Z,56.96
2018-09-08T21:26:28.562Z,57.46
2018-09-08T21:28:59.159Z,57.78
2018-09-08T21:31:29.604Z,57.70
2018-09-08T21:34:00.173Z,58.71
2018-09-08T21:36:31.078Z,58.17
2018-09-08T21:39:01.499Z,58.20
2018-09-08T21:41:32.785Z,59.02
2018-09-08T21:44:03.585Z,60.80
2018-09-08T21:46:35.126Z,63.84
2018-09-08T21:49:06.178Z,60.93
2018-09-08T21:51:36.894Z,59.91
2018-09-08T21:54:07.914Z,60.78
2018-09-08T21:56:38.397Z,60.17
2018-09-08T21:59:08.839Z,59.64
2018-09-08T22:01:39.875Z,59.92
2018-09-08T22:04:10.398Z,59.82
2018-09-08T22:06:41.689Z,59.51
2018-09-08T22:09:12.548Z,59.89
2018-09-08T22:11:43.081Z,59.62
2018-09-08T22:14:13.602Z,60.35
2018-09-08T22:16:44.799Z,59.86
2018-09-08T22:19:15.266Z,59.89
2018-09-08T22:21:45.846Z,62.47
2018-09-08T22:24:16.275Z,60.99
2018-09-08T22:26:46.721Z,61.73
2018-09-08T22:29:17.330Z,60.91
2018-09-08T22:31:48.027Z,60.77
2018-09-08T22:34:18.546Z,60.35
2018-09-08T22:36:49.646Z,60.20
2018-09-08T22:39:19.966Z,60.10
2018-09-08T22:41:50.404Z,58.81
2018-09-08T22:44:20.957Z,58.38
2018-09-08T22:46:52.831Z,58.26
2018-09-08T22:49:23.859Z,58.04
2018-09-08T22:51:54.430Z,59.13
2018-09-08T22:54:25.410Z,59.64
2018-09-08T22:56:56.803Z,59.29
2018-09-08T22:59:27.309Z,59.76
2018-09-08T23:01:58.082Z,60.70
2018-09-08T23:04:28.525Z,62.36
2018-09-08T23:06:59.499Z,61.17
2018-09-08T23:09:30.000Z,61.26
2018-09-08T23:12:00.670Z,60.42
2018-09-08T23:14:30.783Z,59.93
2018-09-08T23:17:01.202Z,59.15
2018-09-08T23:19:31.837Z,60.87
2018-09-08T23:22:02.518Z,61.41
2018-09-08T23:24:32.930Z,60.75
2018-09-08T23:27:04.059Z,59.67
2018-09-08T23:29:34.573Z,58.81
2018-09-08T23:32:04.994Z,57.22
2018-09-08T23:34:35.551Z,60.91
2018-09-08T23:37:06.552Z,60.12
